Relief, North Carolina
Current Conditions -  °F | °C
As of 10:35 PM on Friday 19 Dec 2014 (Local Time) from K0A9 Reporting Station
Clear Clear  
Wind Chill: 28°   Ceiling: Unl
Heat Index: 28°   Visibility: 10mi
Dew Point: 25°   Wind: 3mph
Humidity: 86%   Direction: 20°NNE
Pressure: 30.16"   Gusts: NA
Location:  35.955°N, 82.2044°W
Report Text: K0A9 200335Z AUTO 02003KT 10SM CLR M02/M04 A3016 RMK
Loading
Personal Weather Stations






























Interactive Weather Map New forecast layout! Learn more

10-Day Weather Forecast

Advertisements
Track Severe Weather on mobile